Friday Harbor, WA

7:21 AM PDT on October 01, 2014 (GMT -0700)
San Juan Wx | Change Station
CLOSE
Current Station
Personal Weather Station
Location: Friday Harbor, WA
Elevation: 223 ft
Nearby Weather Stations

Elev 223 ft 48.51 °N, 123.04 °W | Updated 14 minutes ago

Partly Cloudy
Partly Cloudy
47.5 °F
Feels Like 48 °F
N
0.0
Wind Variable Wind from SSW

Today
High -- | Low -- °F
--% Chance of Precip.
Yesterday
High -- | Low -- °F
Precip. -- in
7:11 AM 6:50 PM
Waxing Crescent, 48% visible
Pressure 30.19 in
Visibility 8.0 miles
Clouds Few 5000 ft
Windchill 48 °F
Dew Point 47 °F
Humidity 99%
Rainfall 0.00 in
Snow Depth 0 in , 0 in , 0 in
UV 0 out of 12
Pollen 1.30 out of 12
Air Quality Not available.
Flu Activity Not available.
METAR KFHR 011353Z AUTO 00000KT 8SM FEW050 07/07 A3019 RMK AO2 SLP224 T00720067

More Conditions Fewer Conditions

Pressure 30.19 in
Visibility 8.0 miles
Clouds Few 5000 ft
Windchill 48 °F
Dew Point 47 °F
Humidity 99%
Rainfall 0.00 in
Snow Depth 0 in , 0 in , 0 in
UV 0 out of 12
Pollen 1.30 out of 12
Air Quality Not available.
Flu Activity Not available.
METAR KFHR 011353Z AUTO 00000KT 8SM FEW050 07/07 A3019 RMK AO2 SLP224 T00720067

More Conditions Fewer Conditions

10-Day Weather Forecast

Almanac

Astronomy

Oct. 01, 2014 Rise Set
Actual Time 7:11 AM PDT 6:50 PM PDT
Civil Twilight 6:40 AM PDT 7:22 PM PDT
Nautical Twilight 6:04 AM PDT 7:58 PM PDT
Astronomical Twilight 5:26 AM PDT 8:35 PM PDT
Moon 2:38 PM PDT No Moon Set
Length of Visible Light 12h 41m
Length of Day
11h 39m
Tomorrow will be 3m 30s shorter.
Waxing Crescent, 48% of the Moon is Illuminated
Today
Waxing Crescent
Oct 1
First Quarter
Oct 8
Full
Oct 15
Last Quarter
Oct 23
New

Today's Extremes

State Highs State Lows

Community

WunderPhotos

Upload Photos

1,757,956 photos uploaded!

Nearby

Snow Depth

Station Depth Elevation
Elbow Lake 0 in 3200 ft
Spirit Lake 0 in 3120 ft
Alpine Meadows 0 in 3500 ft
Spruce Springs 1 in 5700 ft
Lone Pine 0 in 3800 ft

Earthquake Activity

City Distance Mag. Time & Date
No recent earthquake activity has been reported nearby.
Minimum magnitude displayed is 2.5.

Coastal Water Temperatures

Place Temperature
Port Townsend, WA 52.0 °F
Friday Harbor, WA 51.1 °F
Port Angeles, WA 51.1 °F

Nearby Weather Stations